createdAt,value
2022-08-24T00:00:42.379Z,8.05
2022-08-24T00:03:30.787Z,3.20
2022-08-24T00:06:22.731Z,3.30
2022-08-24T00:09:08.443Z,3.40
2022-08-24T00:11:54.187Z,3.30
2022-08-24T00:14:40.681Z,3.95
2022-08-24T00:17:26.730Z,3.58
2022-08-24T00:20:13.805Z,3.50
2022-08-24T00:22:59.460Z,3.45
2022-08-24T00:25:45.735Z,3.30
2022-08-24T00:28:32.263Z,3.50
2022-08-24T00:31:18.012Z,3.45
2022-08-24T00:34:03.703Z,3.40
2022-08-24T00:36:49.265Z,3.85
2022-08-24T00:39:35.123Z,3.63
2022-08-24T00:42:21.075Z,4.22
2022-08-24T00:45:09.998Z,3.72
2022-08-24T00:48:03.419Z,3.73
2022-08-24T00:50:50.860Z,3.70
2022-08-24T00:53:42.465Z,3.60
2022-08-24T00:56:51.294Z,4.60
2022-08-24T00:59:49.254Z,4.57
2022-08-24T01:02:38.743Z,4.03
2022-08-24T01:05:25.309Z,3.95
2022-08-24T01:08:12.239Z,4.05
2022-08-24T01:11:09.107Z,4.07
2022-08-24T01:14:00.312Z,3.67
2022-08-24T01:17:04.624Z,4.53
2022-08-24T01:19:54.368Z,4.00
2022-08-24T01:22:53.564Z,4.13
2022-08-24T01:25:42.328Z,4.30
2022-08-24T01:31:21.106Z,3.97
2022-08-24T01:34:07.335Z,3.92
2022-08-24T01:37:00.232Z,3.53
2022-08-24T01:39:48.605Z,3.90
2022-08-24T01:42:35.052Z,3.88
2022-08-24T01:45:22.362Z,4.00
2022-08-24T01:48:08.095Z,5.40
2022-08-24T01:50:53.851Z,3.78
2022-08-24T01:53:41.325Z,3.70
2022-08-24T01:56:26.883Z,3.92
2022-08-24T01:59:16.898Z,4.35
2022-08-24T02:02:15.012Z,5.18
2022-08-24T02:05:00.797Z,3.75
2022-08-24T02:07:46.818Z,4.75
2022-08-24T02:10:32.877Z,4.82
2022-08-24T02:13:19.082Z,4.40
2022-08-24T02:16:05.746Z,4.38
2022-08-24T02:18:53.427Z,4.75
2022-08-24T02:21:39.527Z,4.10
2022-08-24T02:24:25.792Z,4.00
2022-08-24T02:27:11.705Z,4.03
2022-08-24T02:29:57.661Z,4.10
2022-08-24T02:32:43.787Z,4.22
2022-08-24T02:35:30.594Z,4.13
2022-08-24T02:38:16.951Z,4.72
2022-08-24T02:41:07.540Z,4.53
2022-08-24T02:43:55.771Z,4.28
2022-08-24T02:46:42.634Z,4.22
2022-08-24T02:49:30.608Z,5.60
2022-08-24T02:52:16.898Z,4.40
2022-08-24T02:55:02.474Z,5.38
2022-08-24T02:57:48.961Z,3.83
2022-08-24T03:00:36.495Z,4.80
2022-08-24T03:03:21.991Z,4.10
2022-08-24T03:06:09.016Z,4.22
2022-08-24T03:08:56.505Z,4.75
2022-08-24T03:11:45.323Z,4.95
2022-08-24T03:14:32.217Z,4.60
2022-08-24T03:17:19.221Z,4.00
2022-08-24T03:20:07.690Z,4.22
2022-08-24T03:22:53.345Z,5.18
2022-08-24T03:25:39.194Z,4.50
2022-08-24T03:28:25.064Z,4.30
2022-08-24T03:31:11.496Z,4.45
2022-08-24T03:33:58.876Z,4.22
2022-08-24T03:36:47.715Z,4.75
2022-08-24T03:39:35.014Z,5.07
2022-08-24T03:42:21.298Z,4.68
2022-08-24T03:45:07.927Z,4.43
2022-08-24T03:47:55.461Z,4.85
2022-08-24T03:50:45.326Z,4.95
2022-08-24T03:53:33.024Z,4.88
2022-08-24T03:56:22.636Z,4.55
2022-08-24T03:59:10.568Z,4.18
2022-08-24T04:01:59.377Z,3.90
2022-08-24T04:04:46.484Z,4.10
2022-08-24T04:07:33.934Z,4.80
2022-08-24T04:10:21.372Z,4.60
2022-08-24T04:13:08.575Z,4.00
2022-08-24T04:15:54.176Z,4.20
2022-08-24T04:18:40.865Z,4.75
2022-08-24T04:21:30.630Z,4.10
2022-08-24T04:24:16.651Z,5.70
2022-08-24T04:27:02.316Z,4.68
2022-08-24T04:29:47.839Z,4.45
2022-08-24T04:32:33.853Z,4.72
2022-08-24T04:35:19.975Z,5.22
2022-08-24T04:38:06.360Z,4.95
2022-08-24T04:40:52.353Z,5.13
2022-08-24T04:43:39.437Z,4.53
2022-08-24T04:46:25.740Z,5.32
2022-08-24T04:49:12.609Z,4.70
2022-08-24T04:51:58.437Z,4.70
2022-08-24T04:54:44.891Z,4.70
2022-08-24T04:57:36.505Z,4.82
2022-08-24T05:00:23.395Z,5.00
2022-08-24T05:03:11.339Z,4.65
2022-08-24T05:05:57.410Z,4.72
2022-08-24T05:08:43.883Z,5.30
2022-08-24T05:11:30.053Z,4.45
2022-08-24T05:14:16.071Z,4.60
2022-08-24T05:17:03.021Z,5.10
2022-08-24T05:19:50.871Z,4.88
2022-08-24T05:22:37.487Z,4.80
2022-08-24T05:25:23.077Z,5.30
2022-08-24T05:28:09.323Z,5.03
2022-08-24T05:30:55.173Z,5.30
2022-08-24T05:33:41.397Z,4.70
2022-08-24T05:36:31.286Z,5.47
2022-08-24T05:39:16.868Z,4.78
2022-08-24T05:42:10.056Z,5.45
2022-08-24T05:45:02.507Z,4.55
2022-08-24T05:47:49.523Z,4.43
2022-08-24T05:51:01.840Z,5.25
2022-08-24T05:53:52.528Z,4.72
2022-08-24T05:56:40.626Z,5.35
2022-08-24T05:59:26.230Z,4.45
2022-08-24T06:02:12.444Z,5.88
2022-08-24T06:04:58.224Z,4.93
2022-08-24T06:07:44.182Z,5.13
2022-08-24T06:10:36.632Z,5.65
2022-08-24T06:13:23.772Z,5.50
2022-08-24T06:16:21.568Z,7.15
2022-08-24T06:19:11.749Z,5.45
2022-08-24T06:21:57.740Z,4.78
2022-08-24T06:25:04.351Z,4.80
2022-08-24T06:27:50.776Z,4.60
2022-08-24T06:30:36.431Z,4.80
2022-08-24T06:33:36.261Z,5.60
2022-08-24T06:36:23.080Z,6.75
2022-08-24T06:39:10.457Z,5.35
2022-08-24T06:42:00.925Z,6.15
2022-08-24T06:44:52.934Z,6.03
2022-08-24T06:47:41.902Z,5.18
2022-08-24T06:50:28.442Z,5.28
2022-08-24T06:53:16.321Z,5.68
2022-08-24T06:56:02.491Z,7.47
2022-08-24T06:58:51.876Z,6.13
2022-08-24T07:01:38.687Z,5.50
2022-08-24T07:04:28.224Z,4.95
2022-08-24T07:07:33.186Z,5.43
2022-08-24T07:10:23.119Z,5.53
2022-08-24T07:13:14.663Z,5.65
2022-08-24T07:16:01.449Z,5.65
2022-08-24T07:18:50.208Z,6.63
2022-08-24T07:21:38.355Z,4.93
2022-08-24T07:24:25.078Z,5.88
2022-08-24T07:27:10.758Z,5.03
2022-08-24T07:30:16.153Z,5.07
2022-08-24T07:33:03.059Z,5.55
2022-08-24T07:35:48.934Z,5.50
2022-08-24T07:38:34.818Z,4.55
2022-08-24T07:44:35.950Z,5.38
2022-08-24T07:47:43.038Z,4.85
2022-08-24T07:50:41.649Z,4.57
2022-08-24T07:53:32.462Z,5.63
2022-08-24T07:56:29.866Z,4.40
2022-08-24T07:59:18.165Z,4.70
2022-08-24T08:02:05.255Z,4.70
2022-08-24T08:04:51.650Z,5.88
2022-08-24T08:07:38.141Z,4.45
2022-08-24T08:10:24.281Z,4.85
2022-08-24T08:13:11.740Z,4.93
2022-08-24T08:16:00.129Z,4.88
2022-08-24T08:18:52.192Z,4.90
2022-08-24T08:22:12.918Z,5.13
2022-08-24T08:25:22.363Z,5.30
2022-08-24T08:28:24.931Z,5.25
2022-08-24T08:31:11.396Z,4.68
2022-08-24T08:33:58.394Z,5.40
2022-08-24T08:36:45.629Z,4.85
2022-08-24T08:39:33.723Z,4.95
2022-08-24T08:42:29.441Z,5.00
2022-08-24T08:45:45.368Z,4.65
2022-08-24T08:49:49.115Z,5.10
2022-08-24T08:53:03.688Z,4.72
2022-08-24T08:56:02.565Z,5.93
2022-08-24T08:59:16.900Z,5.35
2022-08-24T09:02:15.309Z,5.78
2022-08-24T09:09:35.026Z,6.78
2022-08-24T09:12:57.934Z,5.88
2022-08-24T09:16:16.086Z,5.75
2022-08-24T09:19:14.114Z,4.78
2022-08-24T09:22:12.113Z,4.97
2022-08-24T09:25:30.392Z,5.10
2022-08-24T09:28:49.602Z,6.25
2022-08-24T09:31:51.857Z,4.90
2022-08-24T09:34:58.305Z,4.90
2022-08-24T09:37:47.541Z,5.70
2022-08-24T09:40:59.484Z,5.45
2022-08-24T09:44:09.757Z,4.60
2022-08-24T09:46:58.366Z,5.35
2022-08-24T09:49:55.955Z,4.23
2022-08-24T09:52:47.941Z,3.88
2022-08-24T09:56:22.176Z,4.57
2022-08-24T09:59:14.283Z,3.47
2022-08-24T10:02:00.477Z,3.08
2022-08-24T10:05:12.946Z,2.72
2022-08-24T10:08:07.761Z,2.63
2022-08-24T10:10:59.730Z,3.72
2022-08-24T10:14:09.505Z,3.85
2022-08-24T10:17:43.592Z,3.00
2022-08-24T10:20:50.229Z,2.92
2022-08-24T10:23:51.901Z,2.58
2022-08-24T10:27:06.582Z,3.08
2022-08-24T10:30:13.683Z,2.80
2022-08-24T10:33:21.318Z,3.22
2022-08-24T10:36:34.913Z,2.35
2022-08-24T10:39:53.184Z,2.10
2022-08-24T10:43:28.886Z,3.72
2022-08-24T10:46:18.793Z,2.60
2022-08-24T10:49:11.156Z,2.50
2022-08-24T10:52:16.016Z,2.35
2022-08-24T10:55:26.481Z,3.38
2022-08-24T10:58:18.121Z,2.05
2022-08-24T11:01:35.134Z,2.60
2022-08-24T11:04:31.118Z,3.47
2022-08-24T11:07:22.466Z,4.40
2022-08-24T11:10:10.050Z,2.88
2022-08-24T11:12:55.806Z,2.40
2022-08-24T11:15:58.913Z,2.90
2022-08-24T11:18:52.788Z,3.47
2022-08-24T11:21:50.855Z,2.53
2022-08-24T11:24:48.549Z,2.45
2022-08-24T11:27:45.844Z,2.70
2022-08-24T11:30:32.432Z,3.20
2022-08-24T11:33:49.617Z,2.90
2022-08-24T11:36:38.708Z,2.40
2022-08-24T11:39:37.253Z,2.40
2022-08-24T11:42:50.216Z,2.97
2022-08-24T11:45:45.465Z,2.78
2022-08-24T11:49:05.097Z,2.50
2022-08-24T11:52:09.123Z,3.42
2022-08-24T11:55:08.968Z,2.83
2022-08-24T11:58:10.236Z,2.55
2022-08-24T12:01:26.086Z,2.15
2022-08-24T12:04:30.325Z,2.72
2022-08-24T12:07:31.890Z,3.33
2022-08-24T12:10:32.864Z,2.35
2022-08-24T12:13:47.182Z,2.95
2022-08-24T12:16:45.089Z,3.05
2022-08-24T12:19:40.422Z,2.38
2022-08-24T12:22:27.594Z,1.80
2022-08-24T12:25:32.686Z,2.55
2022-08-24T12:28:25.720Z,2.10
2022-08-24T12:31:28.953Z,3.55
2022-08-24T12:34:29.413Z,1.75
2022-08-24T12:37:39.549Z,2.22
2022-08-24T12:40:34.002Z,3.22
2022-08-24T12:43:27.833Z,2.20
2022-08-24T12:46:17.323Z,3.35
2022-08-24T12:49:18.040Z,2.13
2022-08-24T12:52:25.826Z,4.57
2022-08-24T12:55:30.451Z,2.95
2022-08-24T12:58:34.609Z,2.75
2022-08-24T13:01:27.791Z,1.63
2022-08-24T13:04:34.328Z,2.13
2022-08-24T13:07:19.976Z,3.58
2022-08-24T13:10:25.614Z,2.25
2022-08-24T13:13:21.327Z,1.55
2022-08-24T13:16:07.303Z,2.00
2022-08-24T13:19:34.315Z,2.47
2022-08-24T13:22:46.605Z,3.17
2022-08-24T13:25:47.789Z,1.55
2022-08-24T13:29:03.261Z,1.67
2022-08-24T13:31:54.289Z,5.10
2022-08-24T13:34:44.312Z,3.92
2022-08-24T13:37:29.964Z,1.30
2022-08-24T13:40:27.885Z,3.28
2022-08-24T13:43:30.540Z,2.05
2022-08-24T13:46:46.637Z,3.10
2022-08-24T13:49:51.935Z,1.70
2022-08-24T13:53:11.581Z,3.17
2022-08-24T13:56:19.580Z,1.58
2022-08-24T13:59:16.232Z,1.45
2022-08-24T14:02:35.767Z,2.63
2022-08-24T14:05:50.068Z,2.42
2022-08-24T14:08:54.499Z,1.50
2022-08-24T14:12:00.184Z,1.70
2022-08-24T14:15:15.982Z,1.45
2022-08-24T14:18:37.849Z,1.70
2022-08-24T14:21:35.073Z,2.13
2022-08-24T14:24:45.908Z,1.45
2022-08-24T14:27:47.588Z,1.70
2022-08-24T14:30:33.907Z,1.40
2022-08-24T14:33:27.359Z,1.20
2022-08-24T14:36:16.607Z,1.30
2022-08-24T14:39:09.762Z,1.87
2022-08-24T14:42:15.761Z,1.20
2022-08-24T14:45:04.545Z,1.55
2022-08-24T14:48:05.187Z,0.93
2022-08-24T14:51:13.032Z,1.10
2022-08-24T14:54:14.167Z,1.38
2022-08-24T14:57:31.050Z,1.02
2022-08-24T15:00:22.264Z,1.25
2022-08-24T15:03:42.405Z,1.20
2022-08-24T15:06:48.290Z,1.70
2022-08-24T15:09:37.122Z,1.20
2022-08-24T15:12:38.367Z,1.10
2022-08-24T15:15:28.927Z,1.75
2022-08-24T15:18:21.672Z,1.08
2022-08-24T15:21:26.520Z,0.90
2022-08-24T15:24:29.759Z,2.35
2022-08-24T15:27:53.680Z,1.30
2022-08-24T15:30:42.122Z,1.90
2022-08-24T15:33:30.473Z,1.10
2022-08-24T15:36:18.123Z,2.65
2022-08-24T15:39:06.252Z,1.92
2022-08-24T15:41:53.055Z,1.60
2022-08-24T15:44:42.074Z,1.00
2022-08-24T15:47:34.398Z,2.03
2022-08-24T15:50:29.197Z,0.93
2022-08-24T15:53:35.086Z,1.08
2022-08-24T15:56:20.627Z,0.95
2022-08-24T15:59:12.817Z,1.13
2022-08-24T16:02:30.478Z,1.15
2022-08-24T16:05:25.721Z,1.30
2022-08-24T16:08:13.498Z,2.33
2022-08-24T16:11:19.461Z,1.48
2022-08-24T16:14:25.371Z,1.33
2022-08-24T16:17:34.795Z,1.15
2022-08-24T16:20:23.556Z,1.20
2022-08-24T16:23:13.771Z,2.63
2022-08-24T16:26:46.743Z,1.35
2022-08-24T16:29:39.039Z,1.45
2022-08-24T16:32:38.361Z,1.33
2022-08-24T16:35:36.951Z,1.60
2022-08-24T16:38:22.626Z,1.20
2022-08-24T16:41:11.297Z,1.45
2022-08-24T16:43:57.031Z,1.98
2022-08-24T16:46:42.939Z,1.05
2022-08-24T16:49:34.582Z,3.00
2022-08-24T16:52:21.117Z,1.20
2022-08-24T16:55:07.601Z,3.63
2022-08-24T16:57:53.502Z,1.08
2022-08-24T17:00:39.363Z,1.25
2022-08-24T17:03:25.294Z,1.70
2022-08-24T17:06:12.534Z,1.30
2022-08-24T17:08:58.984Z,1.60
2022-08-24T17:11:45.003Z,0.85
2022-08-24T17:14:31.393Z,0.90
2022-08-24T17:17:22.714Z,1.48
2022-08-24T17:20:13.787Z,2.53
2022-08-24T17:22:59.821Z,2.13
2022-08-24T17:25:46.621Z,1.40
2022-08-24T17:28:37.000Z,1.42
2022-08-24T17:31:26.002Z,1.60
2022-08-24T17:34:12.293Z,1.80
2022-08-24T17:37:01.593Z,1.38
2022-08-24T17:39:55.740Z,2.95
2022-08-24T17:42:51.474Z,1.95
2022-08-24T17:45:37.371Z,3.30
2022-08-24T17:48:26.014Z,1.98
2022-08-24T17:51:12.049Z,1.63
2022-08-24T17:53:57.476Z,2.38
2022-08-24T17:56:45.128Z,1.10
2022-08-24T17:59:34.876Z,1.15
2022-08-24T18:02:25.225Z,1.80
2022-08-24T18:05:12.111Z,1.63
2022-08-24T18:07:58.271Z,3.30
2022-08-24T18:10:44.188Z,1.50
2022-08-24T18:13:29.634Z,1.20
2022-08-24T18:16:20.736Z,3.50
2022-08-24T18:19:07.092Z,1.33
2022-08-24T18:21:52.978Z,1.48
2022-08-24T18:24:40.757Z,1.50
2022-08-24T18:27:30.326Z,1.20
2022-08-24T18:33:17.530Z,1.90
2022-08-24T18:36:04.034Z,1.55
2022-08-24T18:38:49.664Z,3.60
2022-08-24T18:41:39.317Z,1.50
2022-08-24T18:44:28.346Z,1.10
2022-08-24T18:47:17.493Z,2.58
2022-08-24T18:50:05.345Z,1.83
2022-08-24T18:52:51.004Z,1.95
2022-08-24T18:55:38.921Z,1.27
2022-08-24T18:58:25.145Z,3.05
2022-08-24T19:01:11.736Z,1.80
2022-08-24T19:03:57.748Z,4.20
2022-08-24T19:06:43.734Z,1.50
2022-08-24T19:09:34.010Z,2.15
2022-08-24T19:12:20.455Z,2.25
2022-08-24T19:15:07.465Z,2.15
2022-08-24T19:18:16.111Z,1.85
2022-08-24T19:21:01.987Z,1.80
2022-08-24T19:23:48.073Z,3.17
2022-08-24T19:26:34.906Z,2.03
2022-08-24T19:29:39.004Z,1.90
2022-08-24T19:32:29.595Z,1.88
2022-08-24T19:35:16.184Z,2.05
2022-08-24T19:38:03.402Z,2.15
2022-08-24T19:40:49.624Z,2.75
2022-08-24T19:43:56.302Z,2.00
2022-08-24T19:46:42.484Z,3.38
2022-08-24T19:49:28.560Z,2.63
2022-08-24T19:52:15.283Z,2.40
2022-08-24T19:55:02.120Z,2.22
2022-08-24T19:57:47.737Z,2.65
2022-08-24T20:00:41.962Z,2.50
2022-08-24T20:03:34.151Z,2.50
2022-08-24T20:06:23.582Z,3.05
2022-08-24T20:09:09.900Z,2.80
2022-08-24T20:11:55.691Z,3.30
2022-08-24T20:14:41.611Z,3.90
2022-08-24T20:17:27.563Z,3.28
2022-08-24T20:20:23.638Z,3.65
2022-08-24T20:23:09.601Z,3.28
2022-08-24T20:25:57.678Z,3.90
2022-08-24T20:28:49.790Z,3.80
2022-08-24T20:31:35.904Z,3.40
2022-08-24T20:34:29.646Z,3.58
2022-08-24T20:37:22.799Z,3.88
2022-08-24T20:40:14.254Z,4.22
2022-08-24T20:43:00.222Z,3.85
2022-08-24T20:45:46.493Z,4.10
2022-08-24T20:48:34.089Z,3.50
2022-08-24T20:51:20.290Z,4.10
2022-08-24T20:54:06.213Z,3.58
2022-08-24T20:56:52.080Z,4.05
2022-08-24T20:59:38.081Z,3.80
2022-08-24T21:02:24.267Z,3.60
2022-08-24T21:05:10.524Z,4.45
2022-08-24T21:07:58.055Z,3.55
2022-08-24T21:10:44.873Z,3.90
2022-08-24T21:13:30.863Z,3.97
2022-08-24T21:16:17.019Z,4.00
2022-08-24T21:19:03.283Z,3.97
2022-08-24T21:21:49.326Z,4.68
2022-08-24T21:24:35.466Z,3.90
2022-08-24T21:27:22.199Z,3.90
2022-08-24T21:30:12.693Z,3.33
2022-08-24T21:33:18.013Z,4.47
2022-08-24T21:36:05.317Z,3.47
2022-08-24T21:38:54.764Z,4.25
2022-08-24T21:41:40.652Z,3.90
2022-08-24T21:44:26.559Z,3.53
2022-08-24T21:47:12.399Z,3.88
2022-08-24T21:49:58.207Z,3.53
2022-08-24T21:52:44.582Z,4.10
2022-08-24T21:55:31.370Z,3.50
2022-08-24T21:58:17.080Z,4.65
2022-08-24T22:01:02.602Z,3.42
2022-08-24T22:03:48.504Z,3.53
2022-08-24T22:06:34.244Z,3.63
2022-08-24T22:09:22.447Z,4.13
2022-08-24T22:12:08.831Z,3.55
2022-08-24T22:14:55.598Z,3.70
2022-08-24T22:17:41.414Z,3.38
2022-08-24T22:20:27.731Z,3.15
2022-08-24T22:23:13.607Z,3.10
2022-08-24T22:25:59.350Z,3.58
2022-08-24T22:28:44.912Z,3.30
2022-08-24T22:31:33.822Z,3.60
2022-08-24T22:34:21.025Z,3.40
2022-08-24T22:37:07.461Z,4.22
2022-08-24T22:39:53.011Z,3.20
2022-08-24T22:42:38.717Z,3.80
2022-08-24T22:45:24.208Z,3.42
2022-08-24T22:48:09.808Z,3.63
2022-08-24T22:50:55.570Z,3.10
2022-08-24T22:53:41.838Z,3.58
2022-08-24T22:56:30.481Z,4.00
2022-08-24T22:59:35.027Z,3.43
2022-08-24T23:02:21.252Z,3.40
2022-08-24T23:05:08.598Z,3.90
2022-08-24T23:07:54.364Z,3.38
2022-08-24T23:10:40.281Z,3.53
2022-08-24T23:13:28.612Z,3.50
2022-08-24T23:16:15.185Z,3.53
2022-08-24T23:19:19.637Z,3.22
2022-08-24T23:22:06.714Z,3.28
2022-08-24T23:24:52.988Z,3.28
2022-08-24T23:27:39.434Z,3.20
2022-08-24T23:30:25.098Z,4.35
2022-08-24T23:33:10.881Z,3.58
2022-08-24T23:35:56.788Z,3.47
2022-08-24T23:38:48.081Z,3.20
2022-08-24T23:41:37.056Z,3.90
2022-08-24T23:44:28.702Z,3.63
2022-08-24T23:47:14.984Z,3.95
2022-08-24T23:50:00.594Z,3.47
2022-08-24T23:52:46.276Z,3.65
2022-08-24T23:55:32.207Z,3.25
2022-08-24T23:58:17.836Z,3.60
